sensor_id;sensor_type;location;lat;lon;timestamp;P1;durP1;ratioP1;P2;durP2;ratioP2
32082;SDS011;18597;48.328;7.932;2023-10-19T00:00:31;29.10;;;16.30;;
32082;SDS011;18597;48.328;7.932;2023-10-19T00:03:01;33.07;;;16.60;;
32082;SDS011;18597;48.328;7.932;2023-10-19T00:05:28;37.37;;;15.23;;
32082;SDS011;18597;48.328;7.932;2023-10-19T00:07:56;24.00;;;13.50;;
32082;SDS011;18597;48.328;7.932;2023-10-19T00:10:24;24.93;;;15.07;;
32082;SDS011;18597;48.328;7.932;2023-10-19T00:12:54;25.73;;;15.57;;
32082;SDS011;18597;48.328;7.932;2023-10-19T00:15:28;27.70;;;15.37;;
32082;SDS011;18597;48.328;7.932;2023-10-19T00:17:57;38.10;;;19.63;;
32082;SDS011;18597;48.328;7.932;2023-10-19T00:20:31;56.83;;;30.23;;
32082;SDS011;18597;48.328;7.932;2023-10-19T00:23:17;63.73;;;32.00;;
32082;SDS011;18597;48.328;7.932;2023-10-19T00:25:49;63.23;;;31.50;;
32082;SDS011;18597;48.328;7.932;2023-10-19T00:28:17;66.73;;;30.07;;
32082;SDS011;18597;48.328;7.932;2023-10-19T00:30:43;66.63;;;31.83;;
32082;SDS011;18597;48.328;7.932;2023-10-19T00:33:11;62.33;;;32.20;;
32082;SDS011;18597;48.328;7.932;2023-10-19T00:35:53;59.23;;;30.97;;
32082;SDS011;18597;48.328;7.932;2023-10-19T00:38:24;64.63;;;30.87;;
32082;SDS011;18597;48.328;7.932;2023-10-19T00:41:04;57.13;;;30.47;;
32082;SDS011;18597;48.328;7.932;2023-10-19T00:43:45;65.00;;;32.17;;
32082;SDS011;18597;48.328;7.932;2023-10-19T00:46:12;61.77;;;32.30;;
32082;SDS011;18597;48.328;7.932;2023-10-19T00:48:56;70.57;;;32.83;;
32082;SDS011;18597;48.328;7.932;2023-10-19T00:51:25;57.90;;;29.70;;
32082;SDS011;18597;48.328;7.932;2023-10-19T00:54:00;59.67;;;29.80;;
32082;SDS011;18597;48.328;7.932;2023-10-19T00:56:51;67.27;;;30.57;;
32082;SDS011;18597;48.328;7.932;2023-10-19T00:59:20;78.93;;;34.50;;
32082;SDS011;18597;48.328;7.932;2023-10-19T01:01:54;75.10;;;33.00;;
32082;SDS011;18597;48.328;7.932;2023-10-19T01:04:41;71.57;;;32.70;;
32082;SDS011;18597;48.328;7.932;2023-10-19T01:07:10;63.00;;;33.67;;
32082;SDS011;18597;48.328;7.932;2023-10-19T01:09:40;66.43;;;29.70;;
32082;SDS011;18597;48.328;7.932;2023-10-19T01:12:09;62.23;;;29.90;;
32082;SDS011;18597;48.328;7.932;2023-10-19T01:15:06;69.73;;;31.07;;
32082;SDS011;18597;48.328;7.932;2023-10-19T01:17:43;56.80;;;26.07;;
32082;SDS011;18597;48.328;7.932;2023-10-19T01:20:12;73.90;;;31.60;;
32082;SDS011;18597;48.328;7.932;2023-10-19T01:22:47;67.30;;;30.60;;
32082;SDS011;18597;48.328;7.932;2023-10-19T01:25:18;57.80;;;28.40;;
32082;SDS011;18597;48.328;7.932;2023-10-19T01:27:50;68.33;;;32.10;;
32082;SDS011;18597;48.328;7.932;2023-10-19T01:30:22;74.70;;;31.40;;
32082;SDS011;18597;48.328;7.932;2023-10-19T01:32:48;64.13;;;32.30;;
32082;SDS011;18597;48.328;7.932;2023-10-19T01:35:15;64.97;;;33.23;;
32082;SDS011;18597;48.328;7.932;2023-10-19T01:37:40;82.07;;;32.97;;
32082;SDS011;18597;48.328;7.932;2023-10-19T01:40:06;75.60;;;32.67;;
32082;SDS011;18597;48.328;7.932;2023-10-19T01:42:33;73.70;;;31.30;;
32082;SDS011;18597;48.328;7.932;2023-10-19T01:44:59;70.93;;;33.23;;
32082;SDS011;18597;48.328;7.932;2023-10-19T01:47:25;69.70;;;33.10;;
32082;SDS011;18597;48.328;7.932;2023-10-19T01:49:53;94.77;;;38.60;;
32082;SDS011;18597;48.328;7.932;2023-10-19T01:52:18;77.23;;;35.87;;
32082;SDS011;18597;48.328;7.932;2023-10-19T01:54:44;91.67;;;35.47;;
32082;SDS011;18597;48.328;7.932;2023-10-19T01:57:10;108.27;;;44.07;;
32082;SDS011;18597;48.328;7.932;2023-10-19T01:59:37;94.63;;;40.00;;
32082;SDS011;18597;48.328;7.932;2023-10-19T02:02:03;117.10;;;51.80;;
32082;SDS011;18597;48.328;7.932;2023-10-19T02:04:29;159.00;;;67.23;;
32082;SDS011;18597;48.328;7.932;2023-10-19T02:06:59;117.80;;;47.10;;
32082;SDS011;18597;48.328;7.932;2023-10-19T02:09:28;115.33;;;45.70;;
32082;SDS011;18597;48.328;7.932;2023-10-19T02:11:57;149.20;;;51.33;;
32082;SDS011;18597;48.328;7.932;2023-10-19T02:14:25;127.70;;;44.53;;
32082;SDS011;18597;48.328;7.932;2023-10-19T02:16:56;86.57;;;38.17;;
32082;SDS011;18597;48.328;7.932;2023-10-19T02:19:24;125.60;;;41.50;;
32082;SDS011;18597;48.328;7.932;2023-10-19T02:21:53;105.67;;;36.60;;
32082;SDS011;18597;48.328;7.932;2023-10-19T02:24:22;76.57;;;32.40;;
32082;SDS011;18597;48.328;7.932;2023-10-19T02:26:51;80.77;;;38.63;;
32082;SDS011;18597;48.328;7.932;2023-10-19T02:29:20;78.47;;;40.03;;
32082;SDS011;18597;48.328;7.932;2023-10-19T02:31:47;84.93;;;34.43;;
32082;SDS011;18597;48.328;7.932;2023-10-19T02:34:14;65.73;;;30.20;;
32082;SDS011;18597;48.328;7.932;2023-10-19T02:36:41;63.60;;;30.73;;
32082;SDS011;18597;48.328;7.932;2023-10-19T02:39:09;70.53;;;34.37;;
32082;SDS011;18597;48.328;7.932;2023-10-19T02:41:38;66.77;;;32.77;;
32082;SDS011;18597;48.328;7.932;2023-10-19T02:44:09;56.87;;;29.50;;
32082;SDS011;18597;48.328;7.932;2023-10-19T02:46:47;49.27;;;27.07;;
32082;SDS011;18597;48.328;7.932;2023-10-19T02:49:17;44.57;;;21.30;;
32082;SDS011;18597;48.328;7.932;2023-10-19T02:51:45;56.40;;;23.90;;
32082;SDS011;18597;48.328;7.932;2023-10-19T02:54:13;46.60;;;24.10;;
32082;SDS011;18597;48.328;7.932;2023-10-19T02:56:49;57.80;;;27.63;;
32082;SDS011;18597;48.328;7.932;2023-10-19T02:59:19;49.73;;;27.60;;
32082;SDS011;18597;48.328;7.932;2023-10-19T03:01:48;37.07;;;21.93;;
32082;SDS011;18597;48.328;7.932;2023-10-19T03:04:15;35.87;;;22.43;;
32082;SDS011;18597;48.328;7.932;2023-10-19T03:06:42;33.00;;;18.00;;
32082;SDS011;18597;48.328;7.932;2023-10-19T03:09:08;37.17;;;19.90;;
32082;SDS011;18597;48.328;7.932;2023-10-19T03:11:47;37.70;;;21.37;;
32082;SDS011;18597;48.328;7.932;2023-10-19T03:14:18;30.10;;;20.20;;
32082;SDS011;18597;48.328;7.932;2023-10-19T03:16:44;26.70;;;17.50;;
32082;SDS011;18597;48.328;7.932;2023-10-19T03:19:10;35.47;;;19.57;;
32082;SDS011;18597;48.328;7.932;2023-10-19T03:21:38;28.43;;;17.40;;
32082;SDS011;18597;48.328;7.932;2023-10-19T03:24:20;30.30;;;17.30;;
32082;SDS011;18597;48.328;7.932;2023-10-19T03:27:02;27.30;;;16.10;;
32082;SDS011;18597;48.328;7.932;2023-10-19T03:29:49;27.53;;;17.90;;
32082;SDS011;18597;48.328;7.932;2023-10-19T03:32:19;22.73;;;14.70;;
32082;SDS011;18597;48.328;7.932;2023-10-19T03:34:47;23.47;;;14.27;;
32082;SDS011;18597;48.328;7.932;2023-10-19T03:37:14;25.40;;;14.20;;
32082;SDS011;18597;48.328;7.932;2023-10-19T03:39:42;26.10;;;15.83;;
32082;SDS011;18597;48.328;7.932;2023-10-19T03:42:11;19.00;;;14.30;;
32082;SDS011;18597;48.328;7.932;2023-10-19T03:44:39;24.50;;;12.13;;
32082;SDS011;18597;48.328;7.932;2023-10-19T03:47:15;25.40;;;15.00;;
32082;SDS011;18597;48.328;7.932;2023-10-19T03:49:46;26.13;;;14.60;;
32082;SDS011;18597;48.328;7.932;2023-10-19T03:52:13;32.63;;;13.83;;
32082;SDS011;18597;48.328;7.932;2023-10-19T03:54:49;21.10;;;13.60;;
32082;SDS011;18597;48.328;7.932;2023-10-19T03:57:16;22.63;;;13.07;;
32082;SDS011;18597;48.328;7.932;2023-10-19T03:59:44;18.07;;;10.90;;
32082;SDS011;18597;48.328;7.932;2023-10-19T04:02:15;30.90;;;18.75;;
32082;SDS011;18597;48.328;7.932;2023-10-19T04:04:42;28.47;;;13.93;;
32082;SDS011;18597;48.328;7.932;2023-10-19T04:07:10;18.83;;;13.20;;
32082;SDS011;18597;48.328;7.932;2023-10-19T04:09:41;19.63;;;12.30;;
32082;SDS011;18597;48.328;7.932;2023-10-19T04:12:24;22.67;;;11.57;;
32082;SDS011;18597;48.328;7.932;2023-10-19T04:14:50;31.40;;;11.63;;
32082;SDS011;18597;48.328;7.932;2023-10-19T04:17:16;25.40;;;12.17;;
32082;SDS011;18597;48.328;7.932;2023-10-19T04:19:46;19.27;;;11.90;;
32082;SDS011;18597;48.328;7.932;2023-10-19T04:22:20;21.13;;;12.10;;
32082;SDS011;18597;48.328;7.932;2023-10-19T04:24:49;22.27;;;13.57;;
32082;SDS011;18597;48.328;7.932;2023-10-19T04:27:16;20.23;;;13.70;;
32082;SDS011;18597;48.328;7.932;2023-10-19T04:29:42;32.03;;;13.03;;
32082;SDS011;18597;48.328;7.932;2023-10-19T04:32:10;20.90;;;12.73;;
32082;SDS011;18597;48.328;7.932;2023-10-19T04:34:38;18.13;;;10.90;;
32082;SDS011;18597;48.328;7.932;2023-10-19T04:37:05;22.30;;;13.00;;
32082;SDS011;18597;48.328;7.932;2023-10-19T04:39:31;20.80;;;12.30;;
32082;SDS011;18597;48.328;7.932;2023-10-19T04:41:59;17.67;;;11.07;;
32082;SDS011;18597;48.328;7.932;2023-10-19T04:44:25;25.20;;;12.23;;
32082;SDS011;18597;48.328;7.932;2023-10-19T04:46:51;21.97;;;12.37;;
32082;SDS011;18597;48.328;7.932;2023-10-19T04:49:17;22.07;;;11.73;;
32082;SDS011;18597;48.328;7.932;2023-10-19T04:51:43;22.67;;;11.90;;
32082;SDS011;18597;48.328;7.932;2023-10-19T04:54:09;27.73;;;12.40;;
32082;SDS011;18597;48.328;7.932;2023-10-19T04:56:35;17.80;;;12.10;;
32082;SDS011;18597;48.328;7.932;2023-10-19T04:59:02;25.33;;;13.43;;
32082;SDS011;18597;48.328;7.932;2023-10-19T05:01:28;23.97;;;13.43;;
32082;SDS011;18597;48.328;7.932;2023-10-19T05:03:54;22.10;;;12.40;;
32082;SDS011;18597;48.328;7.932;2023-10-19T05:06:20;21.60;;;12.40;;
32082;SDS011;18597;48.328;7.932;2023-10-19T05:08:47;29.77;;;14.27;;
32082;SDS011;18597;48.328;7.932;2023-10-19T05:11:13;26.47;;;13.10;;
32082;SDS011;18597;48.328;7.932;2023-10-19T05:13:39;28.03;;;13.60;;
32082;SDS011;18597;48.328;7.932;2023-10-19T05:16:05;22.93;;;13.67;;
32082;SDS011;18597;48.328;7.932;2023-10-19T05:18:31;18.10;;;12.57;;
32082;SDS011;18597;48.328;7.932;2023-10-19T05:20:56;23.00;;;15.70;;
32082;SDS011;18597;48.328;7.932;2023-10-19T05:23:23;28.73;;;15.83;;
32082;SDS011;18597;48.328;7.932;2023-10-19T05:25:50;21.80;;;14.70;;
32082;SDS011;18597;48.328;7.932;2023-10-19T05:28:18;22.80;;;14.83;;
32082;SDS011;18597;48.328;7.932;2023-10-19T05:30:46;39.93;;;19.70;;
32082;SDS011;18597;48.328;7.932;2023-10-19T05:33:14;38.73;;;17.90;;
32082;SDS011;18597;48.328;7.932;2023-10-19T05:35:40;33.53;;;15.83;;
32082;SDS011;18597;48.328;7.932;2023-10-19T05:38:07;28.40;;;15.57;;
32082;SDS011;18597;48.328;7.932;2023-10-19T05:40:33;19.60;;;13.73;;
32082;SDS011;18597;48.328;7.932;2023-10-19T05:43:01;18.73;;;13.80;;
32082;SDS011;18597;48.328;7.932;2023-10-19T05:45:28;45.70;;;13.67;;
32082;SDS011;18597;48.328;7.932;2023-10-19T05:47:55;15.20;;;11.83;;
32082;SDS011;18597;48.328;7.932;2023-10-19T05:50:23;22.20;;;12.97;;
32082;SDS011;18597;48.328;7.932;2023-10-19T05:52:50;16.67;;;11.37;;
32082;SDS011;18597;48.328;7.932;2023-10-19T05:55:17;17.20;;;11.23;;
32082;SDS011;18597;48.328;7.932;2023-10-19T05:57:46;24.83;;;12.90;;
32082;SDS011;18597;48.328;7.932;2023-10-19T06:00:12;22.20;;;13.83;;
32082;SDS011;18597;48.328;7.932;2023-10-19T06:02:41;30.07;;;17.07;;
32082;SDS011;18597;48.328;7.932;2023-10-19T06:05:09;17.90;;;14.40;;
32082;SDS011;18597;48.328;7.932;2023-10-19T06:07:36;33.37;;;12.40;;
32082;SDS011;18597;48.328;7.932;2023-10-19T06:10:02;28.07;;;13.80;;
32082;SDS011;18597;48.328;7.932;2023-10-19T06:12:31;25.60;;;13.60;;
32082;SDS011;18597;48.328;7.932;2023-10-19T06:14:58;19.60;;;12.17;;
32082;SDS011;18597;48.328;7.932;2023-10-19T06:17:25;20.23;;;12.30;;
32082;SDS011;18597;48.328;7.932;2023-10-19T06:19:53;34.33;;;14.77;;
32082;SDS011;18597;48.328;7.932;2023-10-19T06:22:20;18.27;;;12.43;;
32082;SDS011;18597;48.328;7.932;2023-10-19T06:24:46;21.87;;;14.43;;
32082;SDS011;18597;48.328;7.932;2023-10-19T06:27:12;30.63;;;18.40;;
32082;SDS011;18597;48.328;7.932;2023-10-19T06:29:37;36.90;;;20.93;;
32082;SDS011;18597;48.328;7.932;2023-10-19T06:32:03;32.43;;;19.80;;
32082;SDS011;18597;48.328;7.932;2023-10-19T06:34:29;37.73;;;21.93;;
32082;SDS011;18597;48.328;7.932;2023-10-19T06:36:55;40.70;;;23.40;;
32082;SDS011;18597;48.328;7.932;2023-10-19T06:39:21;44.57;;;25.97;;
32082;SDS011;18597;48.328;7.932;2023-10-19T06:41:48;39.40;;;24.50;;
32082;SDS011;18597;48.328;7.932;2023-10-19T06:44:14;46.47;;;27.43;;
32082;SDS011;18597;48.328;7.932;2023-10-19T06:46:41;55.17;;;27.83;;
32082;SDS011;18597;48.328;7.932;2023-10-19T06:49:08;39.40;;;23.03;;
32082;SDS011;18597;48.328;7.932;2023-10-19T06:51:34;44.50;;;22.33;;
32082;SDS011;18597;48.328;7.932;2023-10-19T06:54:01;34.87;;;20.30;;
32082;SDS011;18597;48.328;7.932;2023-10-19T06:56:28;33.87;;;20.57;;
32082;SDS011;18597;48.328;7.932;2023-10-19T06:58:55;40.53;;;22.30;;
32082;SDS011;18597;48.328;7.932;2023-10-19T07:01:22;45.93;;;23.67;;
32082;SDS011;18597;48.328;7.932;2023-10-19T07:03:51;53.20;;;28.43;;
32082;SDS011;18597;48.328;7.932;2023-10-19T07:06:18;42.57;;;26.73;;
32082;SDS011;18597;48.328;7.932;2023-10-19T07:08:44;44.63;;;25.83;;
32082;SDS011;18597;48.328;7.932;2023-10-19T07:11:11;43.07;;;24.10;;
32082;SDS011;18597;48.328;7.932;2023-10-19T07:13:37;36.33;;;22.90;;
32082;SDS011;18597;48.328;7.932;2023-10-19T07:16:04;30.87;;;22.33;;
32082;SDS011;18597;48.328;7.932;2023-10-19T07:18:31;32.30;;;18.87;;
32082;SDS011;18597;48.328;7.932;2023-10-19T07:20:57;41.53;;;22.83;;
32082;SDS011;18597;48.328;7.932;2023-10-19T07:23:28;61.00;;;34.00;;
32082;SDS011;18597;48.328;7.932;2023-10-19T07:25:54;20.40;;;15.70;;
32082;SDS011;18597;48.328;7.932;2023-10-19T07:28:21;35.90;;;19.40;;
32082;SDS011;18597;48.328;7.932;2023-10-19T07:30:51;30.60;;;16.70;;
32082;SDS011;18597;48.328;7.932;2023-10-19T07:33:17;13.60;;;9.43;;
32082;SDS011;18597;48.328;7.932;2023-10-19T07:35:45;11.53;;;9.73;;
32082;SDS011;18597;48.328;7.932;2023-10-19T07:38:12;12.47;;;9.90;;
32082;SDS011;18597;48.328;7.932;2023-10-19T07:40:39;13.40;;;11.40;;
32082;SDS011;18597;48.328;7.932;2023-10-19T07:43:05;18.50;;;11.30;;
32082;SDS011;18597;48.328;7.932;2023-10-19T07:45:33;13.43;;;10.63;;
32082;SDS011;18597;48.328;7.932;2023-10-19T07:47:59;34.93;;;21.87;;
32082;SDS011;18597;48.328;7.932;2023-10-19T07:50:31;50.20;;;29.30;;
32082;SDS011;18597;48.328;7.932;2023-10-19T07:52:59;26.83;;;15.47;;
32082;SDS011;18597;48.328;7.932;2023-10-19T07:55:25;10.00;;;8.53;;
32082;SDS011;18597;48.328;7.932;2023-10-19T07:57:51;9.80;;;8.13;;
32082;SDS011;18597;48.328;7.932;2023-10-19T08:00:18;9.67;;;8.37;;
32082;SDS011;18597;48.328;7.932;2023-10-19T08:02:45;26.53;;;17.37;;
32082;SDS011;18597;48.328;7.932;2023-10-19T08:05:12;23.57;;;16.03;;
32082;SDS011;18597;48.328;7.932;2023-10-19T08:07:40;12.80;;;10.23;;
32082;SDS011;18597;48.328;7.932;2023-10-19T08:10:09;9.27;;;7.27;;
32082;SDS011;18597;48.328;7.932;2023-10-19T08:12:37;16.20;;;9.70;;
32082;SDS011;18597;48.328;7.932;2023-10-19T08:15:06;8.17;;;7.60;;
32082;SDS011;18597;48.328;7.932;2023-10-19T08:17:36;7.27;;;6.57;;
32082;SDS011;18597;48.328;7.932;2023-10-19T08:20:04;6.33;;;5.83;;
32082;SDS011;18597;48.328;7.932;2023-10-19T08:22:34;7.20;;;6.47;;
32082;SDS011;18597;48.328;7.932;2023-10-19T08:25:03;9.03;;;5.70;;
32082;SDS011;18597;48.328;7.932;2023-10-19T08:27:36;5.57;;;4.20;;
32082;SDS011;18597;48.328;7.932;2023-10-19T08:30:05;5.63;;;4.70;;
32082;SDS011;18597;48.328;7.932;2023-10-19T08:32:34;5.33;;;4.90;;
32082;SDS011;18597;48.328;7.932;2023-10-19T08:35:01;6.80;;;4.70;;
32082;SDS011;18597;48.328;7.932;2023-10-19T08:37:28;3.73;;;3.53;;
32082;SDS011;18597;48.328;7.932;2023-10-19T08:39:53;4.17;;;3.47;;
32082;SDS011;18597;48.328;7.932;2023-10-19T08:42:19;8.60;;;4.63;;
32082;SDS011;18597;48.328;7.932;2023-10-19T08:44:45;4.23;;;3.93;;
32082;SDS011;18597;48.328;7.932;2023-10-19T08:47:11;3.50;;;3.40;;
32082;SDS011;18597;48.328;7.932;2023-10-19T08:49:37;6.13;;;3.83;;
32082;SDS011;18597;48.328;7.932;2023-10-19T08:52:04;14.97;;;4.60;;
32082;SDS011;18597;48.328;7.932;2023-10-19T08:54:32;7.10;;;3.97;;
32082;SDS011;18597;48.328;7.932;2023-10-19T08:56:59;7.17;;;4.90;;
32082;SDS011;18597;48.328;7.932;2023-10-19T08:59:25;5.13;;;4.83;;
32082;SDS011;18597;48.328;7.932;2023-10-19T09:01:59;4.50;;;4.20;;
32082;SDS011;18597;48.328;7.932;2023-10-19T09:04:27;6.13;;;4.57;;
32082;SDS011;18597;48.328;7.932;2023-10-19T09:06:54;5.30;;;4.93;;
32082;SDS011;18597;48.328;7.932;2023-10-19T09:09:20;6.23;;;5.50;;
32082;SDS011;18597;48.328;7.932;2023-10-19T09:11:47;9.70;;;6.13;;
32082;SDS011;18597;48.328;7.932;2023-10-19T09:14:13;11.03;;;5.93;;
32082;SDS011;18597;48.328;7.932;2023-10-19T09:16:57;5.50;;;5.10;;
32082;SDS011;18597;48.328;7.932;2023-10-19T09:19:39;6.97;;;6.27;;
32082;SDS011;18597;48.328;7.932;2023-10-19T09:22:09;6.03;;;5.53;;
32082;SDS011;18597;48.328;7.932;2023-10-19T09:24:51;6.03;;;5.30;;
32082;SDS011;18597;48.328;7.932;2023-10-19T09:27:19;8.30;;;6.07;;
32082;SDS011;18597;48.328;7.932;2023-10-19T09:29:45;10.73;;;7.00;;
32082;SDS011;18597;48.328;7.932;2023-10-19T09:32:13;9.87;;;6.53;;
32082;SDS011;18597;48.328;7.932;2023-10-19T09:34:39;7.13;;;6.60;;
32082;SDS011;18597;48.328;7.932;2023-10-19T09:37:08;37.97;;;9.67;;
32082;SDS011;18597;48.328;7.932;2023-10-19T09:39:36;17.07;;;12.50;;
32082;SDS011;18597;48.328;7.932;2023-10-19T09:42:02;21.33;;;17.27;;
32082;SDS011;18597;48.328;7.932;2023-10-19T09:44:43;16.00;;;12.40;;
32082;SDS011;18597;48.328;7.932;2023-10-19T09:47:26;17.70;;;9.97;;
32082;SDS011;18597;48.328;7.932;2023-10-19T09:50:00;9.10;;;8.27;;
32082;SDS011;18597;48.328;7.932;2023-10-19T09:52:28;9.53;;;7.50;;
32082;SDS011;18597;48.328;7.932;2023-10-19T09:54:59;11.20;;;6.40;;
32082;SDS011;18597;48.328;7.932;2023-10-19T09:57:51;6.30;;;5.80;;
32082;SDS011;18597;48.328;7.932;2023-10-19T10:00:23;10.33;;;9.40;;
32082;SDS011;18597;48.328;7.932;2023-10-19T10:02:49;17.77;;;9.00;;
32082;SDS011;18597;48.328;7.932;2023-10-19T10:05:47;9.80;;;8.83;;
32082;SDS011;18597;48.328;7.932;2023-10-19T10:08:28;14.73;;;9.70;;
32082;SDS011;18597;48.328;7.932;2023-10-19T10:10:55;9.47;;;7.93;;
32082;SDS011;18597;48.328;7.932;2023-10-19T10:16:00;13.80;;;8.90;;
32082;SDS011;18597;48.328;7.932;2023-10-19T10:18:30;13.70;;;7.90;;
32082;SDS011;18597;48.328;7.932;2023-10-19T10:21:05;13.30;;;6.80;;
32082;SDS011;18597;48.328;7.932;2023-10-19T10:23:43;8.40;;;6.53;;
32082;SDS011;18597;48.328;7.932;2023-10-19T10:26:15;8.17;;;7.37;;
32082;SDS011;18597;48.328;7.932;2023-10-19T10:28:47;10.30;;;5.80;;
32082;SDS011;18597;48.328;7.932;2023-10-19T10:31:34;26.27;;;18.97;;
32082;SDS011;18597;48.328;7.932;2023-10-19T10:34:08;13.97;;;11.43;;
32082;SDS011;18597;48.328;7.932;2023-10-19T10:37:07;4.93;;;4.07;;
32082;SDS011;18597;48.328;7.932;2023-10-19T10:39:28;2.50;;;2.40;;
32082;SDS011;18597;48.328;7.932;2023-10-19T10:41:57;4.00;;;3.70;;
32082;SDS011;18597;48.328;7.932;2023-10-19T10:47:17;5.20;;;4.70;;
32082;SDS011;18597;48.328;7.932;2023-10-19T10:49:51;6.43;;;5.13;;
32082;SDS011;18597;48.328;7.932;2023-10-19T10:55:05;5.87;;;4.40;;
32082;SDS011;18597;48.328;7.932;2023-10-19T10:57:36;5.90;;;5.40;;
32082;SDS011;18597;48.328;7.932;2023-10-19T11:00:04;13.63;;;12.23;;
32082;SDS011;18597;48.328;7.932;2023-10-19T11:02:40;13.23;;;12.00;;
32082;SDS011;18597;48.328;7.932;2023-10-19T11:05:10;8.77;;;8.07;;
32082;SDS011;18597;48.328;7.932;2023-10-19T11:07:41;12.50;;;10.80;;
32082;SDS011;18597;48.328;7.932;2023-10-19T11:10:38;10.57;;;9.67;;
32082;SDS011;18597;48.328;7.932;2023-10-19T11:13:07;13.57;;;12.13;;
32082;SDS011;18597;48.328;7.932;2023-10-19T11:15:36;22.43;;;14.80;;
32082;SDS011;18597;48.328;7.932;2023-10-19T11:18:04;14.20;;;12.90;;
32082;SDS011;18597;48.328;7.932;2023-10-19T11:20:34;20.23;;;8.43;;
32082;SDS011;18597;48.328;7.932;2023-10-19T11:23:00;12.10;;;9.40;;
32082;SDS011;18597;48.328;7.932;2023-10-19T11:25:28;4.20;;;3.90;;
32082;SDS011;18597;48.328;7.932;2023-10-19T11:27:57;6.03;;;5.50;;
32082;SDS011;18597;48.328;7.932;2023-10-19T11:30:25;13.53;;;12.23;;
32082;SDS011;18597;48.328;7.932;2023-10-19T11:32:54;6.87;;;6.23;;
32082;SDS011;18597;48.328;7.932;2023-10-19T11:35:23;5.80;;;4.63;;
32082;SDS011;18597;48.328;7.932;2023-10-19T11:37:51;13.90;;;9.40;;
32082;SDS011;18597;48.328;7.932;2023-10-19T11:40:20;11.27;;;7.53;;
32082;SDS011;18597;48.328;7.932;2023-10-19T11:42:48;9.47;;;8.73;;
32082;SDS011;18597;48.328;7.932;2023-10-19T11:45:15;6.53;;;5.93;;
32082;SDS011;18597;48.328;7.932;2023-10-19T11:47:43;7.23;;;4.63;;
32082;SDS011;18597;48.328;7.932;2023-10-19T11:50:10;4.83;;;4.23;;
32082;SDS011;18597;48.328;7.932;2023-10-19T11:52:40;5.03;;;4.60;;
32082;SDS011;18597;48.328;7.932;2023-10-19T11:55:07;8.53;;;6.07;;
32082;SDS011;18597;48.328;7.932;2023-10-19T11:57:34;6.00;;;5.40;;
32082;SDS011;18597;48.328;7.932;2023-10-19T12:00:02;6.33;;;5.63;;
32082;SDS011;18597;48.328;7.932;2023-10-19T12:02:33;8.73;;;7.83;;
32082;SDS011;18597;48.328;7.932;2023-10-19T12:05:02;9.57;;;7.87;;
32082;SDS011;18597;48.328;7.932;2023-10-19T12:07:34;6.00;;;5.60;;
32082;SDS011;18597;48.328;7.932;2023-10-19T12:10:03;7.23;;;6.60;;
32082;SDS011;18597;48.328;7.932;2023-10-19T12:12:33;12.00;;;7.97;;
32082;SDS011;18597;48.328;7.932;2023-10-19T12:14:59;12.37;;;11.10;;
32082;SDS011;18597;48.328;7.932;2023-10-19T12:17:25;9.70;;;8.80;;
32082;SDS011;18597;48.328;7.932;2023-10-19T12:19:52;24.40;;;12.03;;
32082;SDS011;18597;48.328;7.932;2023-10-19T12:22:19;16.50;;;9.30;;
32082;SDS011;18597;48.328;7.932;2023-10-19T12:24:46;16.10;;;9.73;;
32082;SDS011;18597;48.328;7.932;2023-10-19T12:27:13;11.13;;;9.93;;
32082;SDS011;18597;48.328;7.932;2023-10-19T12:29:39;17.17;;;12.67;;
32082;SDS011;18597;48.328;7.932;2023-10-19T12:32:05;14.53;;;12.30;;
32082;SDS011;18597;48.328;7.932;2023-10-19T12:34:31;16.20;;;8.70;;
32082;SDS011;18597;48.328;7.932;2023-10-19T12:36:58;10.87;;;9.40;;
32082;SDS011;18597;48.328;7.932;2023-10-19T12:39:24;8.43;;;7.67;;
32082;SDS011;18597;48.328;7.932;2023-10-19T12:42:10;11.27;;;8.30;;
32082;SDS011;18597;48.328;7.932;2023-10-19T12:44:36;13.20;;;9.30;;
32082;SDS011;18597;48.328;7.932;2023-10-19T12:47:06;11.83;;;8.00;;
32082;SDS011;18597;48.328;7.932;2023-10-19T12:49:41;9.40;;;8.27;;
32082;SDS011;18597;48.328;7.932;2023-10-19T12:52:10;9.60;;;6.17;;
32082;SDS011;18597;48.328;7.932;2023-10-19T12:54:36;8.07;;;6.37;;
32082;SDS011;18597;48.328;7.932;2023-10-19T12:57:03;10.50;;;7.43;;
32082;SDS011;18597;48.328;7.932;2023-10-19T12:59:34;6.87;;;6.13;;
32082;SDS011;18597;48.328;7.932;2023-10-19T13:02:02;12.30;;;8.63;;
32082;SDS011;18597;48.328;7.932;2023-10-19T13:04:29;14.53;;;7.67;;
32082;SDS011;18597;48.328;7.932;2023-10-19T13:06:56;11.93;;;8.47;;
32082;SDS011;18597;48.328;7.932;2023-10-19T13:09:24;10.57;;;9.30;;
32082;SDS011;18597;48.328;7.932;2023-10-19T13:12:01;8.63;;;7.90;;
32082;SDS011;18597;48.328;7.932;2023-10-19T13:14:27;9.10;;;7.70;;
32082;SDS011;18597;48.328;7.932;2023-10-19T13:16:53;14.33;;;12.93;;
32082;SDS011;18597;48.328;7.932;2023-10-19T13:19:19;20.27;;;18.20;;
32082;SDS011;18597;48.328;7.932;2023-10-19T13:21:50;20.33;;;15.40;;
32082;SDS011;18597;48.328;7.932;2023-10-19T13:24:17;8.73;;;7.80;;
32082;SDS011;18597;48.328;7.932;2023-10-19T13:26:45;29.57;;;20.10;;
32082;SDS011;18597;48.328;7.932;2023-10-19T13:29:13;20.23;;;12.80;;
32082;SDS011;18597;48.328;7.932;2023-10-19T13:31:40;13.63;;;8.17;;
32082;SDS011;18597;48.328;7.932;2023-10-19T13:34:09;10.80;;;8.70;;
32082;SDS011;18597;48.328;7.932;2023-10-19T13:36:36;10.50;;;9.37;;
32082;SDS011;18597;48.328;7.932;2023-10-19T13:39:02;9.33;;;8.27;;
32082;SDS011;18597;48.328;7.932;2023-10-19T13:44:20;16.93;;;15.27;;
32082;SDS011;18597;48.328;7.932;2023-10-19T13:46:48;10.57;;;9.57;;
32082;SDS011;18597;48.328;7.932;2023-10-19T13:49:16;12.63;;;11.30;;
32082;SDS011;18597;48.328;7.932;2023-10-19T13:51:43;11.93;;;10.67;;
32082;SDS011;18597;48.328;7.932;2023-10-19T13:54:09;9.30;;;7.60;;
32082;SDS011;18597;48.328;7.932;2023-10-19T13:56:36;7.00;;;6.40;;
32082;SDS011;18597;48.328;7.932;2023-10-19T13:59:01;7.87;;;7.10;;
32082;SDS011;18597;48.328;7.932;2023-10-19T14:01:27;7.00;;;6.47;;
32082;SDS011;18597;48.328;7.932;2023-10-19T14:03:54;8.20;;;7.30;;
32082;SDS011;18597;48.328;7.932;2023-10-19T14:06:20;6.20;;;5.60;;
32082;SDS011;18597;48.328;7.932;2023-10-19T14:08:47;6.13;;;5.53;;
32082;SDS011;18597;48.328;7.932;2023-10-19T14:11:13;6.50;;;5.83;;
32082;SDS011;18597;48.328;7.932;2023-10-19T14:13:39;5.23;;;4.73;;
32082;SDS011;18597;48.328;7.932;2023-10-19T14:16:07;4.23;;;3.70;;
32082;SDS011;18597;48.328;7.932;2023-10-19T14:18:34;3.33;;;3.23;;
32082;SDS011;18597;48.328;7.932;2023-10-19T14:21:09;3.53;;;3.43;;
32082;SDS011;18597;48.328;7.932;2023-10-19T14:23:38;6.30;;;5.70;;
32082;SDS011;18597;48.328;7.932;2023-10-19T14:26:05;12.43;;;4.60;;
32082;SDS011;18597;48.328;7.932;2023-10-19T14:28:31;4.97;;;4.53;;
32082;SDS011;18597;48.328;7.932;2023-10-19T14:30:57;4.80;;;4.40;;
32082;SDS011;18597;48.328;7.932;2023-10-19T14:33:23;4.53;;;4.10;;
32082;SDS011;18597;48.328;7.932;2023-10-19T14:35:49;4.50;;;4.20;;
32082;SDS011;18597;48.328;7.932;2023-10-19T14:38:14;3.87;;;3.57;;
32082;SDS011;18597;48.328;7.932;2023-10-19T14:40:40;8.40;;;4.87;;
32082;SDS011;18597;48.328;7.932;2023-10-19T14:43:10;6.50;;;5.90;;
32082;SDS011;18597;48.328;7.932;2023-10-19T14:45:36;6.30;;;5.70;;
32082;SDS011;18597;48.328;7.932;2023-10-19T14:48:02;10.43;;;7.07;;
32082;SDS011;18597;48.328;7.932;2023-10-19T14:50:29;6.93;;;6.27;;
32082;SDS011;18597;48.328;7.932;2023-10-19T14:52:55;8.50;;;6.60;;